CFG63H EDDS-EDDH
Flight info
| Callsign | CFG63H |
|---|---|
| Flight time | N/A |
| Altitude | 35000 |
| Route | OKIBA4H OKIBA N851 RIMKI Z99 LOHRE DCT MASEK DCT ELNAT P605 NOLGO NOLGO3D |
| Aircraft | A320/M-SDE3FGHIRWY/LB1 |
Departure
| Time | N/A |
|---|---|
| Airport | Stuttgart Airport (EDDS) |
Arrival
| Time | 2026-05-01 12:40 |
|---|---|
| Airport | Hamburg Helmut Schmidt Airport (EDDH) |
| Time | Latitude | Longitude | Altitude | Speed | Heading |
|---|---|---|---|---|---|
| 2026-05-01 12:21 | 53.13200 | 10.12953 | 30275 ft | 420 kts | 1° |
| 2026-05-01 12:21 | 53.16112 | 10.13048 | 29691 ft | 417 kts | 3° |
| 2026-05-01 12:21 | 53.19001 | 10.13140 | 29111 ft | 414 kts | 2° |
| 2026-05-01 12:21 | 53.21866 | 10.13232 | 28561 ft | 410 kts | 1° |
| 2026-05-01 12:22 | 53.24708 | 10.13325 | 28034 ft | 407 kts | 3° |
| 2026-05-01 12:22 | 53.26585 | 10.13388 | 27380 ft | 411 kts | 2° |
| 2026-05-01 12:22 | 53.30425 | 10.13521 | 26160 ft | 419 kts | 1° |
| 2026-05-01 12:22 | 53.33367 | 10.13620 | 25231 ft | 426 kts | 2° |
| 2026-05-01 12:23 | 53.36336 | 10.13718 | 24528 ft | 426 kts | 2° |
| 2026-05-01 12:23 | 53.39293 | 10.13813 | 23908 ft | 423 kts | 1° |
| 2026-05-01 12:23 | 53.42225 | 10.13878 | 23244 ft | 420 kts | 1° |
| 2026-05-01 12:23 | 53.45141 | 10.13882 | 22597 ft | 418 kts | 0° |
| 2026-05-01 12:24 | 53.48054 | 10.13852 | 21734 ft | 420 kts | 0° |
| 2026-05-01 12:24 | 53.49970 | 10.13821 | 21480 ft | 406 kts | 1° |
| 2026-05-01 12:24 | 53.52708 | 10.13772 | 21265 ft | 382 kts | 1° |
| 2026-05-01 12:24 | 53.55292 | 10.13732 | 21011 ft | 361 kts | 1° |
| 2026-05-01 12:25 | 53.57741 | 10.13706 | 20757 ft | 343 kts | 1° |
| 2026-05-01 12:25 | 53.62283 | 10.13685 | 20237 ft | 313 kts | 0° |
| 2026-05-01 12:25 | 53.65147 | 10.13257 | 19424 ft | 312 kts | 343° |
| 2026-05-01 12:26 | 53.67134 | 10.11821 | 18840 ft | 311 kts | 333° |
| 2026-05-01 12:26 | 53.70360 | 10.09039 | 17735 ft | 311 kts | 333° |
| 2026-05-01 12:26 | 53.72282 | 10.07377 | 17087 ft | 311 kts | 333° |
| 2026-05-01 12:27 | 53.74183 | 10.05734 | 16457 ft | 311 kts | 333° |
| 2026-05-01 12:27 | 53.78040 | 10.02398 | 15194 ft | 312 kts | 333° |
| 2026-05-01 12:28 | 53.81900 | 9.99045 | 13988 ft | 312 kts | 333° |
| 2026-05-01 12:28 | 53.83830 | 9.97367 | 13324 ft | 312 kts | 332° |
| 2026-05-01 12:28 | 53.87676 | 9.94021 | 12055 ft | 310 kts | 332° |
| 2026-05-01 12:29 | 53.89586 | 9.92360 | 11441 ft | 308 kts | 332° |
| 2026-05-01 12:29 | 53.91487 | 9.90706 | 10836 ft | 306 kts | 333° |
| 2026-05-01 12:29 | 53.95223 | 9.87446 | 9585 ft | 302 kts | 332° |
| 2026-05-01 12:30 | 53.98547 | 9.83426 | 8316 ft | 291 kts | 300° |
| 2026-05-01 12:30 | 53.99241 | 9.80276 | 7703 ft | 282 kts | 271° |
| 2026-05-01 12:30 | 53.99041 | 9.77145 | 7463 ft | 258 kts | 252° |
| 2026-05-01 12:31 | 53.98559 | 9.74284 | 7173 ft | 248 kts | 249° |
| 2026-05-01 12:31 | 53.98052 | 9.71503 | 6885 ft | 245 kts | 249° |
| 2026-05-01 12:31 | 53.97518 | 9.68772 | 6576 ft | 242 kts | 242° |
| 2026-05-01 12:31 | 53.96511 | 9.66639 | 6275 ft | 232 kts | 211° |
| 2026-05-01 12:32 | 53.95041 | 9.65751 | 5767 ft | 224 kts | 179° |
| 2026-05-01 12:32 | 53.92498 | 9.68280 | 4991 ft | 222 kts | 127° |
| 2026-05-01 12:32 | 53.91653 | 9.70417 | 4865 ft | 215 kts | 124° |
| 2026-05-01 12:33 | 53.90859 | 9.72507 | 4713 ft | 206 kts | 124° |
| 2026-05-01 12:33 | 53.90105 | 9.74513 | 4593 ft | 197 kts | 124° |
| 2026-05-01 12:33 | 53.89351 | 9.76375 | 4496 ft | 185 kts | 135° |
| 2026-05-01 12:33 | 53.88342 | 9.77581 | 4355 ft | 173 kts | 154° |
| 2026-05-01 12:34 | 53.87282 | 9.78505 | 4101 ft | 170 kts | 154° |
| 2026-05-01 12:34 | 53.86231 | 9.79424 | 3815 ft | 170 kts | 154° |
| 2026-05-01 12:34 | 53.85196 | 9.80328 | 3547 ft | 171 kts | 153° |
| 2026-05-01 12:34 | 53.84146 | 9.81246 | 3257 ft | 170 kts | 152° |
| 2026-05-01 12:35 | 53.83095 | 9.82164 | 3027 ft | 169 kts | 152° |
| 2026-05-01 12:35 | 53.82048 | 9.83079 | 2986 ft | 170 kts | 152° |
| 2026-05-01 12:35 | 53.81007 | 9.83988 | 2983 ft | 169 kts | 152° |
| 2026-05-01 12:35 | 53.79955 | 9.84905 | 2988 ft | 169 kts | 153° |
| 2026-05-01 12:36 | 53.78911 | 9.85817 | 2938 ft | 169 kts | 152° |
| 2026-05-01 12:36 | 53.77866 | 9.86728 | 2771 ft | 170 kts | 152° |
| 2026-05-01 12:36 | 53.76821 | 9.87638 | 2571 ft | 173 kts | 153° |
| 2026-05-01 12:36 | 53.75757 | 9.88564 | 2335 ft | 171 kts | 152° |
| 2026-05-01 12:37 | 53.74701 | 9.89483 | 2116 ft | 168 kts | 152° |
| 2026-05-01 12:37 | 53.73666 | 9.90383 | 1874 ft | 167 kts | 152° |
| 2026-05-01 12:37 | 53.72629 | 9.91284 | 1662 ft | 169 kts | 152° |
| 2026-05-01 12:37 | 53.71553 | 9.92219 | 1434 ft | 172 kts | 152° |
| 2026-05-01 12:38 | 53.70543 | 9.93091 | 1244 ft | 153 kts | 152° |
| 2026-05-01 12:38 | 53.69638 | 9.93880 | 996 ft | 141 kts | 151° |
| 2026-05-01 12:38 | 53.68789 | 9.94619 | 831 ft | 135 kts | 152° |
| 2026-05-01 12:38 | 53.67973 | 9.95325 | 672 ft | 133 kts | 152° |
| 2026-05-01 12:39 | 53.67153 | 9.96038 | 477 ft | 133 kts | 152° |
| 2026-05-01 12:39 | 53.66330 | 9.96749 | 298 ft | 134 kts | 152° |
| 2026-05-01 12:39 | 53.65495 | 9.97472 | 106 ft | 135 kts | 151° |
| 2026-05-01 12:39 | 53.64712 | 9.98155 | 41 ft | 110 kts | 153° |
| 2026-05-01 12:40 | 53.64185 | 9.98607 | 42 ft | 60 kts | 153° |
| 2026-05-01 12:40 | 53.63969 | 9.98871 | 39 ft | 33 kts | 127° |
| 2026-05-01 12:40 | 53.63853 | 9.99140 | 41 ft | 27 kts | 126° |
| 2026-05-01 12:40 | 53.63743 | 9.99394 | 44 ft | 27 kts | 126° |
| 2026-05-01 12:41 | 53.63638 | 9.99640 | 46 ft | 17 kts | 126° |
| 2026-05-01 12:41 | 53.63621 | 9.99679 | 46 ft | 0 kts | 126° |
| 2026-05-01 12:42 | 53.63621 | 9.99680 | 46 ft | 1 kts | 126° |
| 2026-05-01 12:42 | 53.63606 | 9.99715 | 44 ft | 7 kts | 126° |
| 2026-05-01 12:43 | 53.63569 | 9.99802 | 46 ft | 11 kts | 126° |
| 2026-05-01 12:43 | 53.63519 | 9.99920 | 45 ft | 14 kts | 125° |
| 2026-05-01 12:43 | 53.63459 | 10.00060 | 46 ft | 15 kts | 126° |
| 2026-05-01 12:43 | 53.63393 | 10.00207 | 46 ft | 14 kts | 134° |
| 2026-05-01 12:44 | 53.63373 | 10.00311 | 46 ft | 5 kts | 86° |
| 2026-05-01 12:44 | 53.63374 | 10.00336 | 46 ft | 0 kts | 86° |
| 2026-05-01 12:44 | 53.63374 | 10.00339 | 46 ft | 0 kts | 86° |